createdAt,value
2016-06-28T00:00:01.671Z,12.79
2016-06-28T00:00:31.675Z,12.82
2016-06-28T00:01:01.698Z,12.78
2016-06-28T00:01:31.710Z,12.8
2016-06-28T00:02:01.715Z,12.78
2016-06-28T00:02:31.754Z,12.75
2016-06-28T00:03:01.750Z,12.8
2016-06-28T00:03:31.774Z,12.79
2016-06-28T00:04:01.802Z,12.82
2016-06-28T00:04:31.830Z,12.78
2016-06-28T00:05:01.823Z,12.79
2016-06-28T00:05:31.824Z,12.82
2016-06-28T00:06:01.839Z,12.83
2016-06-28T00:06:31.867Z,12.8
2016-06-28T00:07:01.904Z,12.87
2016-06-28T00:07:31.885Z,12.93
2016-06-28T00:08:01.923Z,12.87
2016-06-28T00:08:31.925Z,12.82
2016-06-28T00:09:01.931Z,12.8
2016-06-28T00:09:31.928Z,12.82
2016-06-28T00:10:01.975Z,12.79
2016-06-28T00:10:31.989Z,12.83
2016-06-28T00:11:01.995Z,12.79
2016-06-28T00:11:32.009Z,12.93
2016-06-28T00:12:01.428Z,12.93
2016-06-28T00:12:32.030Z,12.91
2016-06-28T00:13:02.049Z,12.82
2016-06-28T00:13:32.058Z,12.83
2016-06-28T00:14:02.111Z,12.86
2016-06-28T00:14:32.107Z,12.85
2016-06-28T00:15:02.091Z,12.86
2016-06-28T00:15:32.126Z,12.87
2016-06-28T00:16:02.137Z,12.93
2016-06-28T00:16:32.170Z,12.86
2016-06-28T00:17:02.166Z,12.93
2016-06-28T00:17:32.175Z,12.86
2016-06-28T00:18:02.186Z,12.93
2016-06-28T00:18:32.208Z,12.87
2016-06-28T00:19:02.452Z,12.86
2016-06-28T00:19:32.231Z,12.91
2016-06-28T00:20:02.239Z,12.87
2016-06-28T00:20:32.267Z,12.78
2016-06-28T00:21:02.307Z,12.87
2016-06-28T00:21:32.288Z,12.8
2016-06-28T00:22:02.302Z,12.91
2016-06-28T00:22:32.312Z,12.85
2016-06-28T00:23:02.341Z,12.91
2016-06-28T00:23:32.362Z,12.93
2016-06-28T00:24:02.402Z,12.87
2016-06-28T00:24:32.396Z,12.91
2016-06-28T00:25:02.471Z,12.87
2016-06-28T00:25:32.416Z,12.9
2016-06-28T00:26:02.429Z,12.86
2016-06-28T00:26:32.439Z,12.93
2016-06-28T00:27:02.480Z,12.9
2016-06-28T00:27:32.477Z,12.9
2016-06-28T00:28:02.483Z,12.9
2016-06-28T00:28:32.497Z,12.9
2016-06-28T00:29:02.525Z,12.93
2016-06-28T00:29:32.531Z,12.93
2016-06-28T00:30:02.585Z,12.9
2016-06-28T00:30:32.562Z,12.93
2016-06-28T00:31:02.570Z,12.94
2016-06-28T00:31:32.580Z,12.9
2016-06-28T00:32:02.639Z,12.91
2016-06-28T00:32:32.622Z,12.94
2016-06-28T00:33:02.640Z,12.86
2016-06-28T00:33:32.645Z,12.86
2016-06-28T00:34:02.683Z,12.93
2016-06-28T00:34:32.669Z,12.85
2016-06-28T00:35:02.692Z,12.93
2016-06-28T00:35:32.711Z,12.86
2016-06-28T00:36:02.752Z,12.91
2016-06-28T00:36:32.746Z,12.85
2016-06-28T00:37:02.747Z,12.97
2016-06-28T00:37:32.759Z,12.97
2016-06-28T00:38:02.764Z,12.97
2016-06-28T00:38:32.787Z,12.94
2016-06-28T00:39:02.834Z,12.87
2016-06-28T00:39:32.825Z,12.94
2016-06-28T00:40:02.848Z,12.93
2016-06-28T00:40:32.852Z,12.93
2016-06-28T00:41:02.871Z,12.91
2016-06-28T00:41:32.880Z,12.94
2016-06-28T00:42:02.893Z,12.93
2016-06-28T00:42:32.923Z,12.9
2016-06-28T00:43:02.932Z,12.97
2016-06-28T00:43:32.948Z,12.94
2016-06-28T00:44:02.960Z,12.93
2016-06-28T00:44:32.993Z,12.94
2016-06-28T00:45:02.998Z,12.93
2016-06-28T00:45:32.994Z,12.97
2016-06-28T00:46:03.045Z,12.98
2016-06-28T00:46:33.046Z,12.97
2016-06-28T00:47:03.035Z,12.94
2016-06-28T00:47:33.050Z,12.98
2016-06-28T00:48:03.079Z,12.95
2016-06-28T00:48:32.475Z,12.98
2016-06-28T00:49:03.105Z,13.01
2016-06-28T00:49:33.160Z,13.03
2016-06-28T00:50:03.138Z,13.01
2016-06-28T00:50:33.144Z,13.01
2016-06-28T00:51:03.159Z,13
2016-06-28T00:51:33.195Z,12.94
2016-06-28T00:52:03.194Z,12.94
2016-06-28T00:52:33.220Z,12.97
2016-06-28T00:53:03.214Z,12.97
2016-06-28T00:53:33.233Z,12.94
2016-06-28T00:54:03.266Z,12.94
2016-06-28T00:54:33.288Z,12.95
2016-06-28T00:55:03.277Z,13
2016-06-28T00:55:33.287Z,13.03
2016-06-28T00:56:03.303Z,13.01
2016-06-28T00:56:33.322Z,13
2016-06-28T00:57:03.339Z,12.98
2016-06-28T00:57:33.367Z,13.04
2016-06-28T00:58:03.359Z,12.95
2016-06-28T00:58:33.419Z,12.95
2016-06-28T00:59:03.394Z,12.97
2016-06-28T00:59:33.395Z,12.91
2016-06-28T01:00:03.423Z,12.94
2016-06-28T01:00:33.440Z,12.93
2016-06-28T01:01:03.474Z,12.97
2016-06-28T01:01:33.486Z,12.87
2016-06-28T01:02:03.514Z,12.93
2016-06-28T01:02:33.496Z,12.97
2016-06-28T01:03:03.507Z,12.87
2016-06-28T01:03:33.754Z,12.86
2016-06-28T01:04:03.553Z,12.8
2016-06-28T01:04:33.554Z,12.76
2016-06-28T01:05:02.972Z,12.76
2016-06-28T01:05:33.590Z,12.8
2016-06-28T01:06:03.616Z,12.73
2016-06-28T01:06:33.613Z,12.75
2016-06-28T01:07:03.635Z,12.75
2016-06-28T01:07:33.638Z,12.76
2016-06-28T01:08:03.661Z,12.76
2016-06-28T01:08:33.659Z,12.75
2016-06-28T01:09:03.694Z,12.72
2016-06-28T01:09:33.709Z,12.72
2016-06-28T01:10:03.738Z,12.73
2016-06-28T01:10:33.729Z,12.72
2016-06-28T01:11:03.733Z,12.73
2016-06-28T01:11:33.752Z,12.7
2016-06-28T01:12:03.768Z,12.76
2016-06-28T01:12:33.795Z,12.7
2016-06-28T01:13:03.839Z,12.78
2016-06-28T01:13:33.815Z,12.76
2016-06-28T01:14:03.833Z,12.7
2016-06-28T01:14:33.847Z,12.72
2016-06-28T01:15:03.858Z,12.68
2016-06-28T01:15:33.877Z,12.75
2016-06-28T01:16:03.892Z,12.75
2016-06-28T01:16:33.905Z,12.78
2016-06-28T01:17:03.918Z,12.72
2016-06-28T01:17:33.926Z,12.7
2016-06-28T01:18:03.944Z,12.65
2016-06-28T01:18:33.990Z,12.7
2016-06-28T01:19:03.967Z,12.67
2016-06-28T01:19:33.989Z,12.57
2016-06-28T01:20:04.023Z,12.58
2016-06-28T01:20:34.030Z,12.62
2016-06-28T01:21:04.061Z,12.58
2016-06-28T01:21:34.052Z,12.6
2016-06-28T01:22:04.062Z,12.62
2016-06-28T01:22:34.082Z,12.55
2016-06-28T01:23:04.081Z,12.54
2016-06-28T01:23:34.114Z,12.53
2016-06-28T01:24:04.127Z,12.47
2016-06-28T01:24:34.142Z,12.5
2016-06-28T01:25:04.159Z,12.45
2016-06-28T01:25:34.183Z,12.43
2016-06-28T01:26:04.185Z,12.47
2016-06-28T01:26:34.198Z,12.5
2016-06-28T01:27:04.197Z,12.46
2016-06-28T01:27:34.248Z,12.43
2016-06-28T01:28:04.251Z,12.47
2016-06-28T01:28:34.253Z,12.47
2016-06-28T01:29:04.282Z,12.57
2016-06-28T01:29:34.279Z,12.49
2016-06-28T01:30:04.317Z,12.53
2016-06-28T01:30:33.710Z,12.54
2016-06-28T01:31:04.319Z,12.57
2016-06-28T01:31:34.377Z,12.42
2016-06-28T01:32:04.361Z,12.47
2016-06-28T01:32:33.769Z,12.45
2016-06-28T01:33:04.379Z,12.5
2016-06-28T01:33:34.396Z,12.49
2016-06-28T01:34:04.422Z,12.53
2016-06-28T01:34:34.431Z,12.49
2016-06-28T01:35:04.446Z,12.5
2016-06-28T01:35:34.455Z,12.47
2016-06-28T01:36:04.475Z,12.49
2016-06-28T01:36:34.498Z,12.4
2016-06-28T01:37:04.508Z,12.43
2016-06-28T01:37:34.514Z,12.43
2016-06-28T01:38:04.530Z,12.45
2016-06-28T01:38:34.530Z,12.43
2016-06-28T01:39:04.574Z,12.37
2016-06-28T01:39:34.569Z,12.35
2016-06-28T01:40:04.591Z,12.32
2016-06-28T01:40:34.623Z,12.25
2016-06-28T01:41:04.615Z,12.25
2016-06-28T01:41:34.619Z,12.27
2016-06-28T01:42:04.646Z,12.28
2016-06-28T01:42:34.683Z,12.31
2016-06-28T01:43:04.906Z,12.28
2016-06-28T01:43:34.709Z,12.29
2016-06-28T01:44:04.729Z,12.21
2016-06-28T01:44:34.726Z,12.32
2016-06-28T01:45:04.728Z,12.24
2016-06-28T01:45:34.739Z,12.25
2016-06-28T01:46:04.761Z,12.18
2016-06-28T01:46:34.783Z,12.22
2016-06-28T01:47:04.810Z,12.27
2016-06-28T01:47:34.795Z,12.22
2016-06-28T01:48:04.819Z,12.25
2016-06-28T01:48:34.840Z,12.25
2016-06-28T01:49:04.837Z,12.29
2016-06-28T01:49:34.855Z,12.29
2016-06-28T01:50:04.874Z,12.27
2016-06-28T01:50:34.894Z,12.27
2016-06-28T01:51:05.131Z,12.29
2016-06-28T01:51:34.942Z,12.25
2016-06-28T01:52:04.940Z,12.28
2016-06-28T01:52:34.947Z,12.35
2016-06-28T01:53:04.955Z,12.28
2016-06-28T01:53:34.982Z,12.35
2016-06-28T01:54:05.001Z,12.31
2016-06-28T01:54:34.416Z,12.29
2016-06-28T01:55:05.031Z,12.21
2016-06-28T01:55:35.031Z,12.21
2016-06-28T01:56:05.055Z,12.21
2016-06-28T01:56:35.077Z,12.29
2016-06-28T01:57:05.072Z,12.27
2016-06-28T01:57:35.115Z,12.28
2016-06-28T01:58:05.115Z,12.25
2016-06-28T01:58:34.533Z,12.25
2016-06-28T01:59:05.131Z,12.28
2016-06-28T01:59:35.154Z,12.25
2016-06-28T02:00:05.178Z,12.18
2016-06-28T02:00:35.174Z,12.21
2016-06-28T02:01:05.195Z,12.22
2016-06-28T02:01:35.213Z,12.21
2016-06-28T02:02:05.219Z,12.2
2016-06-28T02:02:35.239Z,12.18
2016-06-28T02:03:05.269Z,12.07
2016-06-28T02:03:35.283Z,12.18
2016-06-28T02:04:05.278Z,12.17
2016-06-28T02:04:35.296Z,12.1
2016-06-28T02:05:05.307Z,12.13
2016-06-28T02:05:35.341Z,12.09
2016-06-28T02:06:05.342Z,12.12
2016-06-28T02:06:35.355Z,12.13
2016-06-28T02:07:05.378Z,12.07
2016-06-28T02:07:35.377Z,12.04
2016-06-28T02:08:05.406Z,12.07
2016-06-28T02:08:35.415Z,12.09
2016-06-28T02:09:04.820Z,11.95
2016-06-28T02:09:35.454Z,11.97
2016-06-28T02:10:05.453Z,12.06
2016-06-28T02:10:35.466Z,12.06
2016-06-28T02:11:05.481Z,11.97
2016-06-28T02:11:35.516Z,12.12
2016-06-28T02:12:04.922Z,11.94
2016-06-28T02:12:35.543Z,11.94
2016-06-28T02:13:05.550Z,11.95
2016-06-28T02:13:35.570Z,12.07
2016-06-28T02:14:05.579Z,11.99
2016-06-28T02:14:35.568Z,12.09
2016-06-28T02:15:05.590Z,11.99
2016-06-28T02:15:35.630Z,12
2016-06-28T02:16:05.653Z,12.12
2016-06-28T02:16:35.627Z,12.1
2016-06-28T02:17:05.681Z,12.12
2016-06-28T02:17:35.690Z,12.09
2016-06-28T02:18:05.691Z,12.12
2016-06-28T02:18:35.693Z,12.07
2016-06-28T02:19:05.716Z,12.12
2016-06-28T02:19:35.751Z,12.07
2016-06-28T02:20:05.729Z,12.1
2016-06-28T02:20:35.757Z,12.09
2016-06-28T02:21:05.762Z,12.09
2016-06-28T02:21:35.793Z,12.17
2016-06-28T02:22:05.831Z,12.07
2016-06-28T02:22:35.809Z,12.17
2016-06-28T02:23:05.836Z,12.07
2016-06-28T02:23:35.847Z,12.07
2016-06-28T02:24:05.882Z,12.1
2016-06-28T02:24:35.896Z,12.1
2016-06-28T02:25:05.902Z,12.17
2016-06-28T02:25:35.920Z,12.1
2016-06-28T02:26:05.939Z,12.06
2016-06-28T02:26:35.936Z,12.15
2016-06-28T02:27:05.951Z,12.17
2016-06-28T02:27:35.962Z,12.17
2016-06-28T02:28:05.980Z,12.15
2016-06-28T02:28:36.222Z,12.15
2016-06-28T02:29:06.003Z,12.18
2016-06-28T02:29:36.014Z,12.15
2016-06-28T02:30:06.032Z,12.18
2016-06-28T02:30:36.050Z,12.21
2016-06-28T02:31:06.079Z,12.24
2016-06-28T02:31:36.117Z,12.24
2016-06-28T02:32:06.100Z,12.18
2016-06-28T02:32:36.122Z,12.2
2016-06-28T02:33:06.141Z,12.2
2016-06-28T02:33:36.139Z,12.13
2016-06-28T02:34:06.162Z,12.2
2016-06-28T02:34:36.154Z,12.2
2016-06-28T02:35:06.190Z,12.17
2016-06-28T02:35:36.196Z,12.17
2016-06-28T02:36:06.194Z,12.22
2016-06-28T02:36:36.237Z,12.2
2016-06-28T02:37:06.234Z,12.17
2016-06-28T02:37:36.261Z,12.18
2016-06-28T02:38:06.268Z,12.1
2016-06-28T02:38:36.290Z,12.1
2016-06-28T02:39:06.291Z,12.07
2016-06-28T02:39:36.310Z,12.06
2016-06-28T02:40:06.327Z,12.09
2016-06-28T02:40:36.330Z,12.09
2016-06-28T02:41:06.353Z,12.06
2016-06-28T02:41:36.382Z,12.06
2016-06-28T02:42:05.776Z,12.04
2016-06-28T02:42:36.411Z,12.1
2016-06-28T02:43:06.406Z,12.07
2016-06-28T02:43:36.442Z,12.1
2016-06-28T02:44:06.438Z,12.09
2016-06-28T02:44:36.460Z,12.09
2016-06-28T02:45:06.462Z,12.1
2016-06-28T02:45:36.501Z,12.17
2016-06-28T02:46:06.503Z,12.04
2016-06-28T02:46:36.529Z,12.13
2016-06-28T02:47:06.525Z,12.21
2016-06-28T02:47:36.554Z,12.2
2016-06-28T02:48:06.568Z,12.13
2016-06-28T02:48:36.590Z,12.21
2016-06-28T02:49:06.584Z,12.17
2016-06-28T02:49:36.606Z,12.15
2016-06-28T02:50:06.620Z,12.18
2016-06-28T02:50:36.030Z,12.18
2016-06-28T02:51:06.638Z,12.22
2016-06-28T02:51:36.652Z,12.18
2016-06-28T02:52:06.653Z,12.18
2016-06-28T02:52:36.679Z,12.18
2016-06-28T02:53:06.686Z,12.18
2016-06-28T02:53:36.712Z,12.2
2016-06-28T02:54:06.725Z,12.24
2016-06-28T02:54:36.749Z,12.22
2016-06-28T02:55:06.758Z,12.21
2016-06-28T02:55:36.769Z,12.29
2016-06-28T02:56:06.783Z,12.24
2016-06-28T02:56:36.806Z,12.17
2016-06-28T02:57:06.823Z,12.18
2016-06-28T02:57:36.857Z,12.18
2016-06-28T02:58:06.889Z,12.2
2016-06-28T02:58:36.866Z,12.2
2016-06-28T02:59:06.871Z,12.17
2016-06-28T02:59:36.889Z,12.17
2016-06-28T03:00:06.902Z,12.06
2016-06-28T03:00:36.915Z,12.13
2016-06-28T03:01:06.919Z,12.1
2016-06-28T03:01:36.958Z,12.12
2016-06-28T03:02:06.962Z,12.07
2016-06-28T03:02:36.995Z,12.07
2016-06-28T03:03:06.994Z,12.06
2016-06-28T03:03:37.004Z,12.06
2016-06-28T03:04:07.019Z,12.15
2016-06-28T03:04:37.036Z,12.2
2016-06-28T03:05:07.046Z,12.13
2016-06-28T03:05:37.058Z,12.13
2016-06-28T03:06:07.070Z,12.18
2016-06-28T03:06:37.083Z,12.1
2016-06-28T03:07:07.105Z,12.17
2016-06-28T03:07:37.114Z,12.17
2016-06-28T03:08:07.176Z,12.31
2016-06-28T03:08:37.160Z,12.17
2016-06-28T03:09:07.162Z,12.25
2016-06-28T03:09:37.176Z,12.25
2016-06-28T03:10:07.200Z,12.25
2016-06-28T03:10:37.207Z,12.27
2016-06-28T03:11:07.207Z,12.31
2016-06-28T03:11:37.240Z,12.31
2016-06-28T03:12:07.251Z,12.32
2016-06-28T03:12:37.262Z,12.27
2016-06-28T03:13:07.282Z,12.31
2016-06-28T03:13:37.285Z,12.25
2016-06-28T03:14:07.308Z,12.31
2016-06-28T03:14:37.320Z,12.28
2016-06-28T03:15:07.349Z,12.29
2016-06-28T03:15:37.366Z,12.28
2016-06-28T03:16:07.358Z,12.24
2016-06-28T03:16:37.386Z,12.31
2016-06-28T03:17:07.379Z,12.27
2016-06-28T03:17:37.409Z,12.28
2016-06-28T03:18:07.424Z,12.32
2016-06-28T03:18:36.833Z,12.27
2016-06-28T03:19:07.449Z,12.28
2016-06-28T03:19:37.470Z,12.35
2016-06-28T03:20:07.474Z,12.24
2016-06-28T03:20:37.488Z,12.21
2016-06-28T03:21:07.506Z,12.13
2016-06-28T03:21:37.530Z,12.15
2016-06-28T03:22:07.534Z,12.13
2016-06-28T03:22:37.552Z,12.17
2016-06-28T03:23:07.571Z,12.17
2016-06-28T03:23:37.578Z,12.17
2016-06-28T03:24:07.598Z,12.13
2016-06-28T03:24:37.612Z,12.17
2016-06-28T03:25:07.635Z,12.09
2016-06-28T03:25:37.643Z,12.1
2016-06-28T03:26:07.654Z,12.13
2016-06-28T03:26:37.678Z,12.15
2016-06-28T03:27:07.698Z,12.07
2016-06-28T03:27:37.695Z,12.07
2016-06-28T03:28:07.717Z,12.06
2016-06-28T03:28:37.734Z,12.07
2016-06-28T03:29:07.751Z,12.1
2016-06-28T03:29:37.763Z,12.06
2016-06-28T03:30:07.783Z,12.17
2016-06-28T03:30:37.193Z,12.18
2016-06-28T03:31:07.791Z,12.12
2016-06-28T03:31:37.824Z,12.17
2016-06-28T03:32:07.819Z,12.17
2016-06-28T03:32:37.835Z,12.18
2016-06-28T03:33:07.869Z,12.2
2016-06-28T03:33:37.875Z,12.2
2016-06-28T03:34:07.882Z,12.15
2016-06-28T03:34:37.915Z,12.17
2016-06-28T03:35:07.916Z,12.15
2016-06-28T03:35:37.945Z,12.21
2016-06-28T03:36:07.941Z,12.13
2016-06-28T03:36:37.973Z,12.18
2016-06-28T03:37:07.989Z,12.2
2016-06-28T03:37:38.003Z,12.17
2016-06-28T03:38:08.003Z,12.17
2016-06-28T03:38:38.014Z,12.15
2016-06-28T03:39:07.441Z,12.18
2016-06-28T03:39:38.047Z,12.17
2016-06-28T03:40:08.058Z,12.15
2016-06-28T03:40:38.077Z,12.18
2016-06-28T03:41:08.080Z,12.22
2016-06-28T03:41:38.109Z,12.18
2016-06-28T03:42:08.122Z,12.18
2016-06-28T03:42:38.122Z,12.17
2016-06-28T03:43:08.147Z,12.15
2016-06-28T03:43:38.164Z,12.21
2016-06-28T03:44:08.177Z,12.21
2016-06-28T03:44:38.182Z,12.1
2016-06-28T03:45:08.225Z,12.12
2016-06-28T03:45:38.226Z,12.04
2016-06-28T03:46:08.239Z,12.07
2016-06-28T03:46:38.271Z,11.91
2016-06-28T03:47:08.277Z,11.97
2016-06-28T03:47:38.298Z,11.97
2016-06-28T03:48:08.313Z,12
2016-06-28T03:48:38.333Z,12
2016-06-28T03:49:08.331Z,11.9
2016-06-28T03:49:38.354Z,11.9
2016-06-28T03:50:08.374Z,11.91
2016-06-28T03:50:38.380Z,11.84
2016-06-28T03:51:08.401Z,11.94
2016-06-28T03:51:38.400Z,11.9
2016-06-28T03:52:08.434Z,11.88
2016-06-28T03:52:38.420Z,11.83
2016-06-28T03:53:08.434Z,11.84
2016-06-28T03:53:38.461Z,11.88
2016-06-28T03:54:08.459Z,11.81
2016-06-28T03:54:38.485Z,11.87
2016-06-28T03:55:08.494Z,11.95
2016-06-28T03:55:38.511Z,12
2016-06-28T03:56:08.514Z,12
2016-06-28T03:56:38.554Z,12
2016-06-28T03:57:08.569Z,11.99
2016-06-28T03:57:38.569Z,11.94
2016-06-28T03:58:08.598Z,12.04
2016-06-28T03:58:38.610Z,12.04
2016-06-28T03:59:08.623Z,12.06
2016-06-28T03:59:38.622Z,12.04
2016-06-28T04:00:08.671Z,12.07
2016-06-28T04:00:38.660Z,12.21
2016-06-28T04:01:08.671Z,12.17
2016-06-28T04:01:38.674Z,12.13
2016-06-28T04:02:08.078Z,12.17
2016-06-28T04:02:38.715Z,12.29
2016-06-28T04:03:08.732Z,12.29
2016-06-28T04:03:38.738Z,12.32
2016-06-28T04:04:08.750Z,12.28
2016-06-28T04:04:38.761Z,12.28
2016-06-28T04:05:08.779Z,12.45
2016-06-28T04:05:38.795Z,12.47
2016-06-28T04:06:08.821Z,12.39
2016-06-28T04:06:38.832Z,12.42
2016-06-28T04:07:08.835Z,12.45
2016-06-28T04:07:38.852Z,12.46
2016-06-28T04:08:08.863Z,12.46
2016-06-28T04:08:38.884Z,12.49
2016-06-28T04:09:08.908Z,12.45
2016-06-28T04:09:38.902Z,12.43
2016-06-28T04:10:08.938Z,12.45
2016-06-28T04:10:38.942Z,12.47
2016-06-28T04:11:08.951Z,12.45
2016-06-28T04:11:38.974Z,12.5
2016-06-28T04:12:08.990Z,12.45
2016-06-28T04:12:38.997Z,12.55
2016-06-28T04:13:09.007Z,12.47
2016-06-28T04:13:39.020Z,12.43
2016-06-28T04:14:09.085Z,12.58
2016-06-28T04:14:39.049Z,12.6
2016-06-28T04:15:09.076Z,12.57
2016-06-28T04:15:39.094Z,12.7
2016-06-28T04:16:09.116Z,12.75
2016-06-28T04:16:39.107Z,12.73
2016-06-28T04:17:09.133Z,12.68
2016-06-28T04:17:39.145Z,12.76
2016-06-28T04:18:09.179Z,12.7
2016-06-28T04:18:39.178Z,12.76
2016-06-28T04:19:09.203Z,12.72
2016-06-28T04:19:39.200Z,12.73
2016-06-28T04:20:09.218Z,12.73
2016-06-28T04:20:39.229Z,12.75
2016-06-28T04:21:09.252Z,12.78
2016-06-28T04:21:39.278Z,12.76
2016-06-28T04:22:09.278Z,12.8
2016-06-28T04:22:39.287Z,12.82
2016-06-28T04:23:08.715Z,12.82
2016-06-28T04:23:39.322Z,12.93
2016-06-28T04:24:09.352Z,12.83
2016-06-28T04:24:39.346Z,13.03
2016-06-28T04:25:09.362Z,12.97
2016-06-28T04:25:39.392Z,12.97
2016-06-28T04:26:08.785Z,13.03
2016-06-28T04:26:39.416Z,13.11
2016-06-28T04:27:09.426Z,13.05
2016-06-28T04:27:39.435Z,13
2016-06-28T04:28:09.458Z,13.13
2016-06-28T04:28:39.462Z,13.19
2016-06-28T04:29:09.476Z,13.09
2016-06-28T04:29:39.503Z,13.18
2016-06-28T04:30:09.534Z,13.18
2016-06-28T04:30:39.560Z,13.2
2016-06-28T04:31:09.541Z,13.25
2016-06-28T04:31:39.559Z,13.23
2016-06-28T04:32:09.581Z,13.31
2016-06-28T04:32:38.998Z,13.31
2016-06-28T04:33:09.598Z,13.31
2016-06-28T04:33:39.635Z,13.39
2016-06-28T04:34:09.674Z,13.35
2016-06-28T04:34:39.659Z,13.37
2016-06-28T04:35:09.673Z,13.37
2016-06-28T04:35:43.457Z,13.35
2016-06-28T04:36:13.555Z,13.39
2016-06-28T04:36:39.716Z,13.38
2016-06-28T04:37:13.461Z,13.37
2016-06-28T04:37:43.474Z,13.39
2016-06-28T04:38:09.760Z,13.31
2016-06-28T04:38:43.873Z,13.49
2016-06-28T04:39:13.450Z,13.42
2016-06-28T04:39:42.462Z,13.44
2016-06-28T04:40:10.071Z,13.46
2016-06-28T04:40:43.703Z,13.46
2016-06-28T04:41:10.018Z,13.49
2016-06-28T04:41:44.174Z,13.46
2016-06-28T04:42:14.002Z,13.52
2016-06-28T04:42:43.662Z,13.53
2016-06-28T04:43:13.577Z,13.6
2016-06-28T04:43:43.930Z,13.54
2016-06-28T04:44:13.850Z,13.49
2016-06-28T04:44:43.895Z,13.59
2016-06-28T04:45:13.913Z,13.54
2016-06-28T04:45:43.488Z,13.63
2016-06-28T04:46:13.916Z,13.53
2016-06-28T04:46:43.833Z,13.54
2016-06-28T04:47:13.832Z,13.65
2016-06-28T04:47:43.383Z,13.62
2016-06-28T04:48:13.538Z,13.6
2016-06-28T04:48:43.997Z,13.62
2016-06-28T04:49:14.135Z,13.67
2016-06-28T04:49:43.892Z,13.7
2016-06-28T04:50:14.291Z,13.7
2016-06-28T04:50:43.322Z,13.62
2016-06-28T04:51:14.127Z,13.65
2016-06-28T04:51:43.621Z,13.67
2016-06-28T04:52:14.142Z,13.59
2016-06-28T04:52:44.457Z,13.65
2016-06-28T04:53:13.555Z,13.62
2016-06-28T04:53:44.166Z,13.71
2016-06-28T04:54:14.135Z,13.53
2016-06-28T04:54:44.105Z,13.6
2016-06-28T04:55:13.556Z,13.68
2016-06-28T04:55:42.349Z,13.62
2016-06-28T04:56:10.469Z,13.54
2016-06-28T04:56:42.510Z,13.52
2016-06-28T04:57:13.475Z,13.53
2016-06-28T04:57:43.935Z,13.5
2016-06-28T04:58:14.402Z,13.5
2016-06-28T04:58:43.653Z,13.47
2016-06-28T04:59:13.590Z,13.5
2016-06-28T04:59:43.895Z,13.47
2016-06-28T05:00:13.704Z,13.49
2016-06-28T05:00:44.539Z,13.42
2016-06-28T05:01:10.536Z,13.5
2016-06-28T05:01:40.437Z,13.41
2016-06-28T05:02:10.458Z,13.41
2016-06-28T05:02:40.481Z,13.39
2016-06-28T05:03:10.507Z,13.41
2016-06-28T05:03:40.530Z,13.46
2016-06-28T05:04:10.577Z,13.47
2016-06-28T05:04:40.550Z,13.49
2016-06-28T05:05:10.558Z,13.5
2016-06-28T05:05:40.559Z,13.59
2016-06-28T05:06:10.574Z,13.54
2016-06-28T05:06:40.595Z,13.59
2016-06-28T05:07:10.609Z,13.67
2016-06-28T05:07:40.640Z,13.52
2016-06-28T05:08:10.637Z,13.52
2016-06-28T05:08:40.659Z,13.75
2016-06-28T05:09:10.683Z,14.04
2016-06-28T05:09:40.676Z,14.37
2016-06-28T05:10:10.700Z,14.86
2016-06-28T05:10:40.718Z,15.35
2016-06-28T05:11:10.767Z,15.9
2016-06-28T05:11:40.731Z,16.26
2016-06-28T05:12:10.769Z,16.43
2016-06-28T05:12:40.783Z,16.58
2016-06-28T05:13:10.795Z,16.74
2016-06-28T05:13:40.803Z,16.71
2016-06-28T05:14:10.819Z,16.58
2016-06-28T05:14:40.860Z,16.41
2016-06-28T05:15:10.841Z,16.28
2016-06-28T05:15:40.882Z,16.04
2016-06-28T05:16:10.871Z,15.79
2016-06-28T05:16:40.915Z,15.73
2016-06-28T05:17:10.911Z,15.52
2016-06-28T05:17:40.317Z,15.35
2016-06-28T05:18:10.950Z,15.33
2016-06-28T05:18:40.968Z,15.36
2016-06-28T05:19:10.965Z,15.33
2016-06-28T05:19:40.993Z,15.28
2016-06-28T05:20:11.015Z,15.21
2016-06-28T05:20:41.023Z,15.11
2016-06-28T05:21:11.039Z,15.19
2016-06-28T05:21:41.067Z,15.11
2016-06-28T05:22:11.069Z,15.22
2016-06-28T05:22:41.091Z,15.4
2016-06-28T05:23:11.089Z,15.59
2016-06-28T05:23:41.106Z,15.67
2016-06-28T05:24:11.165Z,15.68
2016-06-28T05:24:41.144Z,15.65
2016-06-28T05:25:11.156Z,15.51
2016-06-28T05:25:41.188Z,15.42
2016-06-28T05:26:11.182Z,15.47
2016-06-28T05:26:41.211Z,15.46
2016-06-28T05:27:11.238Z,15.39
2016-06-28T05:27:41.234Z,15.33
2016-06-28T05:28:11.258Z,15.22
2016-06-28T05:28:41.306Z,15.15
2016-06-28T05:29:11.288Z,15.14
2016-06-28T05:29:41.294Z,15.07
2016-06-28T05:30:11.329Z,14.99
2016-06-28T05:30:41.334Z,14.94
2016-06-28T05:31:11.354Z,14.94
2016-06-28T05:31:41.347Z,14.78
2016-06-28T05:32:11.371Z,14.79
2016-06-28T05:32:41.410Z,14.84
2016-06-28T05:33:11.421Z,14.81
2016-06-28T05:33:41.413Z,14.86
2016-06-28T05:34:11.447Z,14.82
2016-06-28T05:34:41.463Z,14.77
2016-06-28T05:35:10.860Z,14.77
2016-06-28T05:35:41.476Z,14.81
2016-06-28T05:36:11.486Z,14.86
2016-06-28T05:36:41.511Z,15
2016-06-28T05:37:11.525Z,14.94
2016-06-28T05:37:41.564Z,14.99
2016-06-28T05:38:11.567Z,14.99
2016-06-28T05:38:41.571Z,15.02
2016-06-28T05:39:11.587Z,14.91
2016-06-28T05:39:41.600Z,14.89
2016-06-28T05:40:11.627Z,14.92
2016-06-28T05:40:41.642Z,14.94
2016-06-28T05:41:11.663Z,14.92
2016-06-28T05:41:41.660Z,14.97
2016-06-28T05:42:11.680Z,15.04
2016-06-28T05:42:41.695Z,15.06
2016-06-28T05:43:11.711Z,15.04
2016-06-28T05:43:41.719Z,15.1
2016-06-28T05:44:11.747Z,15.11
2016-06-28T05:44:41.763Z,15.15
2016-06-28T05:45:11.778Z,15.17
2016-06-28T05:45:41.781Z,15.24
2016-06-28T05:46:11.806Z,15.24
2016-06-28T05:46:41.817Z,15.19
2016-06-28T05:47:11.830Z,15.36
2016-06-28T05:47:41.847Z,15.39
2016-06-28T05:48:11.856Z,15.37
2016-06-28T05:48:41.876Z,15.29
2016-06-28T05:49:11.897Z,15.4
2016-06-28T05:49:41.906Z,15.4
2016-06-28T05:50:11.929Z,15.44
2016-06-28T05:50:41.937Z,15.46
2016-06-28T05:51:11.967Z,15.52
2016-06-28T05:51:41.974Z,15.54
2016-06-28T05:52:11.974Z,15.61
2016-06-28T05:52:42.002Z,15.58
2016-06-28T05:53:12.005Z,15.62
2016-06-28T05:53:42.053Z,15.67
2016-06-28T05:54:12.041Z,15.54
2016-06-28T05:54:42.057Z,15.65
2016-06-28T05:55:12.074Z,15.67
2016-06-28T05:55:42.119Z,15.68
2016-06-28T05:56:12.118Z,15.72
2016-06-28T05:56:42.118Z,15.7
2016-06-28T05:57:12.135Z,15.73
2016-06-28T05:57:42.199Z,15.76
2016-06-28T05:58:12.197Z,15.73
2016-06-28T05:58:42.182Z,15.8
2016-06-28T05:59:12.219Z,15.75
2016-06-28T05:59:42.219Z,15.79
2016-06-28T06:00:12.230Z,15.76
2016-06-28T06:00:42.251Z,15.79
2016-06-28T06:01:12.255Z,15.84
2016-06-28T06:01:42.297Z,15.88
2016-06-28T06:02:12.283Z,15.92
2016-06-28T06:02:42.303Z,15.92
2016-06-28T06:03:12.319Z,15.91
2016-06-28T06:03:42.356Z,16.02
2016-06-28T06:04:12.574Z,16.04
2016-06-28T06:04:42.361Z,16.09
2016-06-28T06:05:12.404Z,16.13
2016-06-28T06:05:42.391Z,16.1
2016-06-28T06:06:12.429Z,16.13
2016-06-28T06:06:42.432Z,16.17
2016-06-28T06:07:12.462Z,16.26
2016-06-28T06:07:42.461Z,16.32
2016-06-28T06:08:12.481Z,16.35
2016-06-28T06:08:42.506Z,16.36
2016-06-28T06:09:12.503Z,16.35
2016-06-28T06:09:42.521Z,16.33
2016-06-28T06:10:12.541Z,16.39
2016-06-28T06:10:42.567Z,16.46
2016-06-28T06:11:12.579Z,16.42
2016-06-28T06:11:42.584Z,16.43
2016-06-28T06:12:12.601Z,16.51
2016-06-28T06:12:42.615Z,16.58
2016-06-28T06:13:12.638Z,16.68
2016-06-28T06:13:42.655Z,16.58
2016-06-28T06:14:12.658Z,16.66
2016-06-28T06:14:42.677Z,16.68
2016-06-28T06:15:12.710Z,16.71
2016-06-28T06:15:42.723Z,16.79
2016-06-28T06:16:12.741Z,16.83
2016-06-28T06:16:42.752Z,16.84
2016-06-28T06:17:12.756Z,16.87
2016-06-28T06:17:42.780Z,16.84
2016-06-28T06:18:12.782Z,16.79
2016-06-28T06:18:42.807Z,16.93
2016-06-28T06:19:12.839Z,17.05
2016-06-28T06:19:42.835Z,17.26
2016-06-28T06:20:12.883Z,17.54
2016-06-28T06:20:42.870Z,17.79
2016-06-28T06:21:12.872Z,18.22
2016-06-28T06:21:42.920Z,18.56
2016-06-28T06:22:12.942Z,18.89
2016-06-28T06:22:42.943Z,19.54
2016-06-28T06:23:12.957Z,19.99
2016-06-28T06:23:42.972Z,20.44
2016-06-28T06:24:12.989Z,20.85
2016-06-28T06:24:42.990Z,21.33
2016-06-28T06:25:13.028Z,21.75
2016-06-28T06:25:43.052Z,22.26
2016-06-28T06:26:12.460Z,22.63
2016-06-28T06:26:43.082Z,23.06
2016-06-28T06:27:13.078Z,23.4
2016-06-28T06:27:43.324Z,23.73
2016-06-28T06:28:13.118Z,24.05